sensor_id;sensor_type;location;lat;lon;timestamp;P1;durP1;ratioP1;P2;durP2;ratioP2
57826;SDS011;43656;57.746;11.780;2024-03-08T00:02:24;14.57;;;8.43;;
57826;SDS011;43656;57.746;11.780;2024-03-08T00:04:49;16.55;;;8.02;;
57826;SDS011;43656;57.746;11.780;2024-03-08T00:07:15;12.32;;;7.82;;
57826;SDS011;43656;57.746;11.780;2024-03-08T00:09:40;15.82;;;8.30;;
57826;SDS011;43656;57.746;11.780;2024-03-08T00:12:06;12.43;;;8.30;;
57826;SDS011;43656;57.746;11.780;2024-03-08T00:14:31;17.08;;;9.25;;
57826;SDS011;43656;57.746;11.780;2024-03-08T00:16:58;13.20;;;8.05;;
57826;SDS011;43656;57.746;11.780;2024-03-08T00:19:23;15.73;;;8.73;;
57826;SDS011;43656;57.746;11.780;2024-03-08T00:21:49;16.73;;;8.95;;
57826;SDS011;43656;57.746;11.780;2024-03-08T00:24:14;22.92;;;8.93;;
57826;SDS011;43656;57.746;11.780;2024-03-08T00:26:40;14.60;;;7.63;;
57826;SDS011;43656;57.746;11.780;2024-03-08T00:29:07;14.75;;;8.45;;
57826;SDS011;43656;57.746;11.780;2024-03-08T00:31:32;16.40;;;8.35;;
57826;SDS011;43656;57.746;11.780;2024-03-08T00:33:58;14.85;;;8.50;;
57826;SDS011;43656;57.746;11.780;2024-03-08T00:36:23;14.07;;;8.15;;
57826;SDS011;43656;57.746;11.780;2024-03-08T00:38:50;14.05;;;7.57;;
57826;SDS011;43656;57.746;11.780;2024-03-08T00:41:15;14.32;;;7.93;;
57826;SDS011;43656;57.746;11.780;2024-03-08T00:43:41;13.05;;;7.85;;
57826;SDS011;43656;57.746;11.780;2024-03-08T00:46:07;13.13;;;8.25;;
57826;SDS011;43656;57.746;11.780;2024-03-08T00:48:33;16.40;;;8.38;;
57826;SDS011;43656;57.746;11.780;2024-03-08T00:50:58;18.23;;;8.02;;
57826;SDS011;43656;57.746;11.780;2024-03-08T00:53:24;14.38;;;7.75;;
57826;SDS011;43656;57.746;11.780;2024-03-08T00:55:49;16.50;;;8.35;;
57826;SDS011;43656;57.746;11.780;2024-03-08T00:58:15;16.42;;;8.48;;
57826;SDS011;43656;57.746;11.780;2024-03-08T01:00:40;13.40;;;7.60;;
57826;SDS011;43656;57.746;11.780;2024-03-08T01:03:06;13.98;;;7.47;;
57826;SDS011;43656;57.746;11.780;2024-03-08T01:05:33;17.77;;;8.85;;
57826;SDS011;43656;57.746;11.780;2024-03-08T01:08:00;13.50;;;7.70;;
57826;SDS011;43656;57.746;11.780;2024-03-08T01:10:25;14.82;;;8.20;;
57826;SDS011;43656;57.746;11.780;2024-03-08T01:12:52;16.48;;;8.27;;
57826;SDS011;43656;57.746;11.780;2024-03-08T01:15:19;13.20;;;8.07;;
57826;SDS011;43656;57.746;11.780;2024-03-08T01:17:45;12.77;;;8.10;;
57826;SDS011;43656;57.746;11.780;2024-03-08T01:20:10;15.05;;;8.13;;
57826;SDS011;43656;57.746;11.780;2024-03-08T01:22:37;15.00;;;9.15;;
57826;SDS011;43656;57.746;11.780;2024-03-08T01:25:03;14.50;;;8.27;;
57826;SDS011;43656;57.746;11.780;2024-03-08T01:27:30;17.70;;;9.25;;
57826;SDS011;43656;57.746;11.780;2024-03-08T01:29:56;14.65;;;8.43;;
57826;SDS011;43656;57.746;11.780;2024-03-08T01:32:24;18.98;;;8.43;;
57826;SDS011;43656;57.746;11.780;2024-03-08T01:34:50;13.98;;;9.00;;
57826;SDS011;43656;57.746;11.780;2024-03-08T01:37:15;16.88;;;8.50;;
57826;SDS011;43656;57.746;11.780;2024-03-08T01:39:41;17.27;;;8.32;;
57826;SDS011;43656;57.746;11.780;2024-03-08T01:42:07;17.02;;;8.90;;
57826;SDS011;43656;57.746;11.780;2024-03-08T01:44:32;15.70;;;8.48;;
57826;SDS011;43656;57.746;11.780;2024-03-08T01:46:58;12.93;;;8.35;;
57826;SDS011;43656;57.746;11.780;2024-03-08T01:49:23;14.65;;;8.63;;
57826;SDS011;43656;57.746;11.780;2024-03-08T01:51:51;16.50;;;7.93;;
57826;SDS011;43656;57.746;11.780;2024-03-08T01:54:18;16.67;;;8.32;;
57826;SDS011;43656;57.746;11.780;2024-03-08T01:56:45;16.40;;;7.90;;
57826;SDS011;43656;57.746;11.780;2024-03-08T01:59:11;16.63;;;8.30;;
57826;SDS011;43656;57.746;11.780;2024-03-08T02:01:39;14.90;;;8.57;;
57826;SDS011;43656;57.746;11.780;2024-03-08T02:04:05;15.00;;;8.68;;
57826;SDS011;43656;57.746;11.780;2024-03-08T02:06:33;15.90;;;8.63;;
57826;SDS011;43656;57.746;11.780;2024-03-08T02:08:59;17.20;;;8.05;;
57826;SDS011;43656;57.746;11.780;2024-03-08T02:11:25;16.75;;;8.70;;
57826;SDS011;43656;57.746;11.780;2024-03-08T02:13:51;15.02;;;8.63;;
57826;SDS011;43656;57.746;11.780;2024-03-08T02:16:20;14.57;;;8.73;;
57826;SDS011;43656;57.746;11.780;2024-03-08T02:18:47;17.88;;;9.05;;
57826;SDS011;43656;57.746;11.780;2024-03-08T02:21:12;15.40;;;8.30;;
57826;SDS011;43656;57.746;11.780;2024-03-08T02:23:43;15.85;;;8.13;;
57826;SDS011;43656;57.746;11.780;2024-03-08T02:26:08;19.55;;;8.93;;
57826;SDS011;43656;57.746;11.780;2024-03-08T02:28:33;16.48;;;8.63;;
57826;SDS011;43656;57.746;11.780;2024-03-08T02:30:59;15.10;;;8.13;;
57826;SDS011;43656;57.746;11.780;2024-03-08T02:33:25;14.05;;;7.70;;
57826;SDS011;43656;57.746;11.780;2024-03-08T02:35:52;15.40;;;7.57;;
57826;SDS011;43656;57.746;11.780;2024-03-08T02:38:18;18.50;;;7.93;;
57826;SDS011;43656;57.746;11.780;2024-03-08T02:40:44;16.83;;;9.05;;
57826;SDS011;43656;57.746;11.780;2024-03-08T02:43:11;14.63;;;7.65;;
57826;SDS011;43656;57.746;11.780;2024-03-08T02:45:38;15.38;;;8.23;;
57826;SDS011;43656;57.746;11.780;2024-03-08T02:48:03;15.15;;;8.40;;
57826;SDS011;43656;57.746;11.780;2024-03-08T02:50:31;14.02;;;7.57;;
57826;SDS011;43656;57.746;11.780;2024-03-08T02:52:57;16.02;;;7.72;;
57826;SDS011;43656;57.746;11.780;2024-03-08T02:55:22;14.98;;;8.13;;
57826;SDS011;43656;57.746;11.780;2024-03-08T02:57:50;14.20;;;7.88;;
57826;SDS011;43656;57.746;11.780;2024-03-08T03:00:16;16.80;;;8.05;;
57826;SDS011;43656;57.746;11.780;2024-03-08T03:02:44;13.05;;;7.38;;
57826;SDS011;43656;57.746;11.780;2024-03-08T03:05:10;14.93;;;7.10;;
57826;SDS011;43656;57.746;11.780;2024-03-08T03:07:36;16.73;;;7.50;;
57826;SDS011;43656;57.746;11.780;2024-03-08T03:10:02;16.35;;;8.23;;
57826;SDS011;43656;57.746;11.780;2024-03-08T03:12:29;15.25;;;7.20;;
57826;SDS011;43656;57.746;11.780;2024-03-08T03:14:55;13.98;;;7.45;;
57826;SDS011;43656;57.746;11.780;2024-03-08T03:17:22;18.27;;;7.55;;
57826;SDS011;43656;57.746;11.780;2024-03-08T03:19:50;13.30;;;7.60;;
57826;SDS011;43656;57.746;11.780;2024-03-08T03:22:19;13.68;;;7.10;;
57826;SDS011;43656;57.746;11.780;2024-03-08T03:24:45;15.18;;;7.88;;
57826;SDS011;43656;57.746;11.780;2024-03-08T03:27:14;14.75;;;7.13;;
57826;SDS011;43656;57.746;11.780;2024-03-08T03:29:40;14.32;;;7.07;;
57826;SDS011;43656;57.746;11.780;2024-03-08T03:32:10;13.65;;;7.00;;
57826;SDS011;43656;57.746;11.780;2024-03-08T03:34:37;13.20;;;6.97;;
57826;SDS011;43656;57.746;11.780;2024-03-08T03:37:04;18.77;;;7.93;;
57826;SDS011;43656;57.746;11.780;2024-03-08T03:39:30;12.57;;;7.47;;
57826;SDS011;43656;57.746;11.780;2024-03-08T03:42:14;12.48;;;7.15;;
57826;SDS011;43656;57.746;11.780;2024-03-08T03:44:49;14.63;;;7.05;;
57826;SDS011;43656;57.746;11.780;2024-03-08T03:47:14;17.25;;;7.50;;
57826;SDS011;43656;57.746;11.780;2024-03-08T03:49:41;13.60;;;6.88;;
57826;SDS011;43656;57.746;11.780;2024-03-08T03:52:08;17.83;;;6.78;;
57826;SDS011;43656;57.746;11.780;2024-03-08T03:54:34;10.57;;;6.85;;
57826;SDS011;43656;57.746;11.780;2024-03-08T03:56:59;13.38;;;6.85;;
57826;SDS011;43656;57.746;11.780;2024-03-08T03:59:25;12.13;;;6.95;;
57826;SDS011;43656;57.746;11.780;2024-03-08T04:01:52;14.93;;;6.85;;
57826;SDS011;43656;57.746;11.780;2024-03-08T04:04:18;14.82;;;7.07;;
57826;SDS011;43656;57.746;11.780;2024-03-08T04:06:43;14.85;;;7.88;;
57826;SDS011;43656;57.746;11.780;2024-03-08T04:09:10;15.95;;;7.57;;
57826;SDS011;43656;57.746;11.780;2024-03-08T04:11:36;16.45;;;8.43;;
57826;SDS011;43656;57.746;11.780;2024-03-08T04:14:01;13.90;;;8.07;;
57826;SDS011;43656;57.746;11.780;2024-03-08T04:16:27;12.32;;;6.93;;
57826;SDS011;43656;57.746;11.780;2024-03-08T04:18:52;15.82;;;8.18;;
57826;SDS011;43656;57.746;11.780;2024-03-08T04:21:18;15.52;;;8.52;;
57826;SDS011;43656;57.746;11.780;2024-03-08T04:23:46;15.13;;;7.88;;
57826;SDS011;43656;57.746;11.780;2024-03-08T04:26:11;13.70;;;7.78;;
57826;SDS011;43656;57.746;11.780;2024-03-08T04:28:38;17.13;;;8.88;;
57826;SDS011;43656;57.746;11.780;2024-03-08T04:31:04;14.07;;;7.90;;
57826;SDS011;43656;57.746;11.780;2024-03-08T04:33:31;19.02;;;8.75;;
57826;SDS011;43656;57.746;11.780;2024-03-08T04:35:57;17.00;;;7.97;;
57826;SDS011;43656;57.746;11.780;2024-03-08T04:38:23;16.00;;;8.50;;
57826;SDS011;43656;57.746;11.780;2024-03-08T04:40:49;13.57;;;7.85;;
57826;SDS011;43656;57.746;11.780;2024-03-08T04:43:15;17.80;;;8.23;;
57826;SDS011;43656;57.746;11.780;2024-03-08T04:45:43;18.70;;;9.02;;
57826;SDS011;43656;57.746;11.780;2024-03-08T04:48:09;17.27;;;9.00;;
57826;SDS011;43656;57.746;11.780;2024-03-08T04:50:36;17.05;;;8.43;;
57826;SDS011;43656;57.746;11.780;2024-03-08T04:53:03;19.35;;;8.25;;
57826;SDS011;43656;57.746;11.780;2024-03-08T04:55:33;13.20;;;8.00;;
57826;SDS011;43656;57.746;11.780;2024-03-08T04:57:59;14.80;;;7.85;;
57826;SDS011;43656;57.746;11.780;2024-03-08T05:00:26;12.63;;;8.18;;
57826;SDS011;43656;57.746;11.780;2024-03-08T05:02:51;13.85;;;8.23;;
57826;SDS011;43656;57.746;11.780;2024-03-08T05:05:18;13.10;;;8.00;;
57826;SDS011;43656;57.746;11.780;2024-03-08T05:07:44;15.77;;;8.25;;
57826;SDS011;43656;57.746;11.780;2024-03-08T05:10:10;15.25;;;8.10;;
57826;SDS011;43656;57.746;11.780;2024-03-08T05:12:36;17.67;;;7.90;;
57826;SDS011;43656;57.746;11.780;2024-03-08T05:15:04;14.25;;;8.55;;
57826;SDS011;43656;57.746;11.780;2024-03-08T05:17:30;15.73;;;8.70;;
57826;SDS011;43656;57.746;11.780;2024-03-08T05:19:55;14.68;;;8.82;;
57826;SDS011;43656;57.746;11.780;2024-03-08T05:22:21;17.13;;;8.48;;
57826;SDS011;43656;57.746;11.780;2024-03-08T05:24:46;15.80;;;8.05;;
57826;SDS011;43656;57.746;11.780;2024-03-08T05:27:12;16.10;;;8.00;;
57826;SDS011;43656;57.746;11.780;2024-03-08T05:29:38;17.15;;;8.73;;
57826;SDS011;43656;57.746;11.780;2024-03-08T05:32:03;16.95;;;9.02;;
57826;SDS011;43656;57.746;11.780;2024-03-08T05:34:29;17.25;;;9.10;;
57826;SDS011;43656;57.746;11.780;2024-03-08T05:36:54;14.43;;;8.07;;
57826;SDS011;43656;57.746;11.780;2024-03-08T05:39:20;15.35;;;8.48;;
57826;SDS011;43656;57.746;11.780;2024-03-08T05:41:45;15.52;;;8.35;;
57826;SDS011;43656;57.746;11.780;2024-03-08T05:44:11;16.15;;;8.38;;
57826;SDS011;43656;57.746;11.780;2024-03-08T05:46:38;19.10;;;9.15;;
57826;SDS011;43656;57.746;11.780;2024-03-08T05:49:04;16.17;;;8.63;;
57826;SDS011;43656;57.746;11.780;2024-03-08T05:51:37;18.63;;;8.88;;
57826;SDS011;43656;57.746;11.780;2024-03-08T05:54:05;14.52;;;8.38;;
57826;SDS011;43656;57.746;11.780;2024-03-08T05:56:37;15.77;;;8.52;;
57826;SDS011;43656;57.746;11.780;2024-03-08T05:59:03;14.55;;;8.07;;
57826;SDS011;43656;57.746;11.780;2024-03-08T06:01:29;18.15;;;8.43;;
57826;SDS011;43656;57.746;11.780;2024-03-08T06:03:56;15.85;;;7.45;;
57826;SDS011;43656;57.746;11.780;2024-03-08T06:06:23;15.57;;;9.38;;
57826;SDS011;43656;57.746;11.780;2024-03-08T06:08:49;17.77;;;8.38;;
57826;SDS011;43656;57.746;11.780;2024-03-08T06:11:15;15.10;;;8.18;;
57826;SDS011;43656;57.746;11.780;2024-03-08T06:13:43;16.10;;;8.13;;
57826;SDS011;43656;57.746;11.780;2024-03-08T06:16:09;12.85;;;7.72;;
57826;SDS011;43656;57.746;11.780;2024-03-08T06:18:34;14.75;;;7.53;;
57826;SDS011;43656;57.746;11.780;2024-03-08T06:21:04;15.32;;;8.02;;
57826;SDS011;43656;57.746;11.780;2024-03-08T06:23:34;15.55;;;7.80;;
57826;SDS011;43656;57.746;11.780;2024-03-08T06:26:03;14.88;;;7.93;;
57826;SDS011;43656;57.746;11.780;2024-03-08T06:28:29;12.05;;;7.43;;
57826;SDS011;43656;57.746;11.780;2024-03-08T06:30:54;14.82;;;7.75;;
57826;SDS011;43656;57.746;11.780;2024-03-08T06:33:20;11.70;;;7.80;;
57826;SDS011;43656;57.746;11.780;2024-03-08T06:35:45;15.02;;;8.00;;
57826;SDS011;43656;57.746;11.780;2024-03-08T06:38:10;17.05;;;7.97;;
57826;SDS011;43656;57.746;11.780;2024-03-08T06:40:36;15.00;;;8.45;;
57826;SDS011;43656;57.746;11.780;2024-03-08T06:43:02;14.13;;;7.82;;
57826;SDS011;43656;57.746;11.780;2024-03-08T06:45:30;16.73;;;9.20;;
57826;SDS011;43656;57.746;11.780;2024-03-08T06:47:56;13.68;;;8.65;;
57826;SDS011;43656;57.746;11.780;2024-03-08T06:50:22;13.98;;;8.35;;
57826;SDS011;43656;57.746;11.780;2024-03-08T06:52:47;15.15;;;8.63;;
57826;SDS011;43656;57.746;11.780;2024-03-08T06:55:18;15.40;;;8.32;;
57826;SDS011;43656;57.746;11.780;2024-03-08T06:57:44;16.27;;;7.97;;
57826;SDS011;43656;57.746;11.780;2024-03-08T07:00:10;13.25;;;7.72;;
57826;SDS011;43656;57.746;11.780;2024-03-08T07:02:41;16.63;;;8.35;;
57826;SDS011;43656;57.746;11.780;2024-03-08T07:05:07;19.05;;;8.43;;
57826;SDS011;43656;57.746;11.780;2024-03-08T07:07:35;19.20;;;8.60;;
57826;SDS011;43656;57.746;11.780;2024-03-08T07:10:01;13.73;;;7.85;;
57826;SDS011;43656;57.746;11.780;2024-03-08T07:12:26;13.05;;;7.65;;
57826;SDS011;43656;57.746;11.780;2024-03-08T07:14:51;15.30;;;7.72;;
57826;SDS011;43656;57.746;11.780;2024-03-08T07:17:17;14.20;;;7.63;;
57826;SDS011;43656;57.746;11.780;2024-03-08T07:19:42;12.30;;;7.93;;
57826;SDS011;43656;57.746;11.780;2024-03-08T07:22:08;12.05;;;8.10;;
57826;SDS011;43656;57.746;11.780;2024-03-08T07:24:34;13.73;;;7.82;;
57826;SDS011;43656;57.746;11.780;2024-03-08T07:27:12;15.07;;;8.18;;
57826;SDS011;43656;57.746;11.780;2024-03-08T07:29:37;14.05;;;7.93;;
57826;SDS011;43656;57.746;11.780;2024-03-08T07:32:03;14.30;;;7.95;;
57826;SDS011;43656;57.746;11.780;2024-03-08T07:37:15;13.90;;;7.28;;
57826;SDS011;43656;57.746;11.780;2024-03-08T07:39:41;10.90;;;7.35;;
57826;SDS011;43656;57.746;11.780;2024-03-08T07:42:07;11.82;;;7.68;;
57826;SDS011;43656;57.746;11.780;2024-03-08T07:44:32;11.60;;;6.65;;
57826;SDS011;43656;57.746;11.780;2024-03-08T07:46:59;15.07;;;7.00;;
57826;SDS011;43656;57.746;11.780;2024-03-08T07:49:25;15.13;;;6.53;;
57826;SDS011;43656;57.746;11.780;2024-03-08T07:51:50;14.13;;;6.55;;
57826;SDS011;43656;57.746;11.780;2024-03-08T07:54:16;11.48;;;6.65;;
57826;SDS011;43656;57.746;11.780;2024-03-08T07:56:42;9.88;;;6.10;;
57826;SDS011;43656;57.746;11.780;2024-03-08T07:59:07;10.40;;;6.05;;
57826;SDS011;43656;57.746;11.780;2024-03-08T08:01:33;9.80;;;5.57;;
57826;SDS011;43656;57.746;11.780;2024-03-08T08:03:59;12.27;;;6.40;;
57826;SDS011;43656;57.746;11.780;2024-03-08T08:06:27;11.93;;;6.43;;
57826;SDS011;43656;57.746;11.780;2024-03-08T08:08:53;11.50;;;6.15;;
57826;SDS011;43656;57.746;11.780;2024-03-08T08:11:19;12.02;;;6.53;;
57826;SDS011;43656;57.746;11.780;2024-03-08T08:13:45;10.85;;;5.28;;
57826;SDS011;43656;57.746;11.780;2024-03-08T08:16:10;10.80;;;5.88;;
57826;SDS011;43656;57.746;11.780;2024-03-08T08:18:37;10.07;;;5.72;;
57826;SDS011;43656;57.746;11.780;2024-03-08T08:21:03;13.90;;;6.07;;
57826;SDS011;43656;57.746;11.780;2024-03-08T08:23:31;9.45;;;5.70;;
57826;SDS011;43656;57.746;11.780;2024-03-08T08:25:57;9.68;;;5.93;;
57826;SDS011;43656;57.746;11.780;2024-03-08T08:28:22;10.68;;;5.82;;
57826;SDS011;43656;57.746;11.780;2024-03-08T08:30:49;9.82;;;5.90;;
57826;SDS011;43656;57.746;11.780;2024-03-08T08:33:14;11.23;;;5.47;;
57826;SDS011;43656;57.746;11.780;2024-03-08T08:35:40;13.90;;;6.00;;
57826;SDS011;43656;57.746;11.780;2024-03-08T08:38:05;7.78;;;5.22;;
57826;SDS011;43656;57.746;11.780;2024-03-08T08:40:32;12.05;;;5.60;;
57826;SDS011;43656;57.746;11.780;2024-03-08T08:42:58;9.52;;;5.07;;
57826;SDS011;43656;57.746;11.780;2024-03-08T08:45:24;9.13;;;5.70;;
57826;SDS011;43656;57.746;11.780;2024-03-08T08:47:50;9.43;;;4.72;;
57826;SDS011;43656;57.746;11.780;2024-03-08T08:50:16;6.75;;;4.40;;
57826;SDS011;43656;57.746;11.780;2024-03-08T08:52:48;7.40;;;4.20;;
57826;SDS011;43656;57.746;11.780;2024-03-08T08:55:14;9.25;;;4.35;;
57826;SDS011;43656;57.746;11.780;2024-03-08T08:57:40;8.45;;;4.43;;
57826;SDS011;43656;57.746;11.780;2024-03-08T09:00:07;7.18;;;4.40;;
57826;SDS011;43656;57.746;11.780;2024-03-08T09:02:36;11.15;;;4.15;;
57826;SDS011;43656;57.746;11.780;2024-03-08T09:05:02;8.38;;;4.95;;
57826;SDS011;43656;57.746;11.780;2024-03-08T09:07:28;6.80;;;4.38;;
57826;SDS011;43656;57.746;11.780;2024-03-08T09:09:53;5.68;;;4.40;;
57826;SDS011;43656;57.746;11.780;2024-03-08T09:12:23;9.43;;;4.10;;
57826;SDS011;43656;57.746;11.780;2024-03-08T09:14:49;7.03;;;3.70;;
57826;SDS011;43656;57.746;11.780;2024-03-08T09:17:15;5.72;;;3.97;;
57826;SDS011;43656;57.746;11.780;2024-03-08T09:19:46;6.25;;;3.88;;
57826;SDS011;43656;57.746;11.780;2024-03-08T09:22:12;7.78;;;4.18;;
57826;SDS011;43656;57.746;11.780;2024-03-08T09:24:38;6.75;;;3.80;;
57826;SDS011;43656;57.746;11.780;2024-03-08T09:27:04;9.40;;;4.10;;
57826;SDS011;43656;57.746;11.780;2024-03-08T09:29:29;5.18;;;3.60;;
57826;SDS011;43656;57.746;11.780;2024-03-08T09:31:55;8.88;;;4.00;;
57826;SDS011;43656;57.746;11.780;2024-03-08T09:34:20;10.60;;;3.80;;
57826;SDS011;43656;57.746;11.780;2024-03-08T09:36:46;7.43;;;3.78;;
57826;SDS011;43656;57.746;11.780;2024-03-08T09:39:12;7.15;;;4.28;;
57826;SDS011;43656;57.746;11.780;2024-03-08T09:41:43;7.85;;;3.80;;
57826;SDS011;43656;57.746;11.780;2024-03-08T09:44:09;6.25;;;3.83;;
57826;SDS011;43656;57.746;11.780;2024-03-08T09:46:34;10.35;;;3.88;;
57826;SDS011;43656;57.746;11.780;2024-03-08T09:49:01;8.57;;;3.83;;
57826;SDS011;43656;57.746;11.780;2024-03-08T09:51:30;6.05;;;3.55;;
57826;SDS011;43656;57.746;11.780;2024-03-08T09:53:59;5.40;;;3.40;;
57826;SDS011;43656;57.746;11.780;2024-03-08T09:56:25;6.05;;;3.78;;
57826;SDS011;43656;57.746;11.780;2024-03-08T09:58:52;9.32;;;3.85;;
57826;SDS011;43656;57.746;11.780;2024-03-08T10:01:30;8.10;;;3.45;;
57826;SDS011;43656;57.746;11.780;2024-03-08T10:03:56;11.70;;;3.53;;
57826;SDS011;43656;57.746;11.780;2024-03-08T10:06:23;6.13;;;3.53;;
57826;SDS011;43656;57.746;11.780;2024-03-08T10:08:48;7.32;;;3.22;;
57826;SDS011;43656;57.746;11.780;2024-03-08T10:11:16;6.80;;;4.00;;
57826;SDS011;43656;57.746;11.780;2024-03-08T10:13:43;6.70;;;3.83;;
57826;SDS011;43656;57.746;11.780;2024-03-08T10:16:11;5.63;;;3.53;;
57826;SDS011;43656;57.746;11.780;2024-03-08T10:18:37;7.43;;;3.95;;
57826;SDS011;43656;57.746;11.780;2024-03-08T10:21:07;5.60;;;3.58;;
57826;SDS011;43656;57.746;11.780;2024-03-08T10:23:35;5.30;;;3.22;;
57826;SDS011;43656;57.746;11.780;2024-03-08T10:26:22;6.93;;;3.70;;
57826;SDS011;43656;57.746;11.780;2024-03-08T10:28:48;6.07;;;3.50;;
57826;SDS011;43656;57.746;11.780;2024-03-08T10:31:15;6.90;;;3.70;;
57826;SDS011;43656;57.746;11.780;2024-03-08T10:33:42;4.70;;;3.55;;
57826;SDS011;43656;57.746;11.780;2024-03-08T10:36:09;6.25;;;3.90;;
57826;SDS011;43656;57.746;11.780;2024-03-08T10:38:39;5.78;;;3.80;;
57826;SDS011;43656;57.746;11.780;2024-03-08T10:41:07;7.20;;;3.50;;
57826;SDS011;43656;57.746;11.780;2024-03-08T10:43:40;5.78;;;3.78;;
57826;SDS011;43656;57.746;11.780;2024-03-08T10:46:14;4.88;;;3.40;;
57826;SDS011;43656;57.746;11.780;2024-03-08T10:48:55;5.72;;;3.28;;
57826;SDS011;43656;57.746;11.780;2024-03-08T10:51:43;5.78;;;3.75;;
57826;SDS011;43656;57.746;11.780;2024-03-08T10:54:10;9.38;;;3.38;;
57826;SDS011;43656;57.746;11.780;2024-03-08T10:56:37;5.95;;;3.28;;
57826;SDS011;43656;57.746;11.780;2024-03-08T10:59:05;6.68;;;3.13;;
57826;SDS011;43656;57.746;11.780;2024-03-08T11:01:33;6.70;;;3.00;;
57826;SDS011;43656;57.746;11.780;2024-03-08T11:03:59;6.75;;;3.03;;
57826;SDS011;43656;57.746;11.780;2024-03-08T11:09:02;4.88;;;2.80;;
57826;SDS011;43656;57.746;11.780;2024-03-08T11:11:38;5.80;;;3.35;;
57826;SDS011;43656;57.746;11.780;2024-03-08T11:14:08;6.95;;;3.00;;
57826;SDS011;43656;57.746;11.780;2024-03-08T11:17:08;5.60;;;2.83;;
57826;SDS011;43656;57.746;11.780;2024-03-08T11:19:34;4.78;;;2.70;;
57826;SDS011;43656;57.746;11.780;2024-03-08T11:22:03;5.18;;;2.90;;
57826;SDS011;43656;57.746;11.780;2024-03-08T11:24:36;6.65;;;2.85;;
57826;SDS011;43656;57.746;11.780;2024-03-08T11:27:05;5.55;;;3.28;;
57826;SDS011;43656;57.746;11.780;2024-03-08T11:32:07;4.30;;;2.90;;
57826;SDS011;43656;57.746;11.780;2024-03-08T11:34:34;3.95;;;2.45;;
57826;SDS011;43656;57.746;11.780;2024-03-08T11:37:00;6.03;;;2.95;;
57826;SDS011;43656;57.746;11.780;2024-03-08T11:39:26;4.80;;;2.60;;
57826;SDS011;43656;57.746;11.780;2024-03-08T11:41:53;3.75;;;2.60;;
57826;SDS011;43656;57.746;11.780;2024-03-08T11:44:21;4.82;;;2.50;;
57826;SDS011;43656;57.746;11.780;2024-03-08T11:46:48;4.40;;;2.45;;
57826;SDS011;43656;57.746;11.780;2024-03-08T11:49:14;7.35;;;2.88;;
57826;SDS011;43656;57.746;11.780;2024-03-08T11:51:39;3.75;;;2.40;;
57826;SDS011;43656;57.746;11.780;2024-03-08T11:54:06;3.67;;;2.40;;
57826;SDS011;43656;57.746;11.780;2024-03-08T11:56:36;8.30;;;3.08;;
57826;SDS011;43656;57.746;11.780;2024-03-08T11:59:02;3.90;;;2.65;;
57826;SDS011;43656;57.746;11.780;2024-03-08T12:01:27;6.22;;;2.75;;
57826;SDS011;43656;57.746;11.780;2024-03-08T12:03:53;3.72;;;2.80;;
57826;SDS011;43656;57.746;11.780;2024-03-08T12:06:24;5.72;;;2.97;;
57826;SDS011;43656;57.746;11.780;2024-03-08T12:08:49;3.85;;;2.60;;
57826;SDS011;43656;57.746;11.780;2024-03-08T12:11:22;5.57;;;2.45;;
57826;SDS011;43656;57.746;11.780;2024-03-08T12:13:48;4.45;;;2.50;;
57826;SDS011;43656;57.746;11.780;2024-03-08T12:16:16;3.58;;;2.40;;
57826;SDS011;43656;57.746;11.780;2024-03-08T12:18:50;6.32;;;2.65;;
57826;SDS011;43656;57.746;11.780;2024-03-08T12:21:18;4.05;;;2.53;;
57826;SDS011;43656;57.746;11.780;2024-03-08T12:23:46;5.00;;;2.22;;
57826;SDS011;43656;57.746;11.780;2024-03-08T12:26:23;6.18;;;2.42;;
57826;SDS011;43656;57.746;11.780;2024-03-08T12:28:51;4.50;;;2.25;;
57826;SDS011;43656;57.746;11.780;2024-03-08T12:31:17;4.45;;;2.55;;
57826;SDS011;43656;57.746;11.780;2024-03-08T12:33:54;4.07;;;1.60;;
57826;SDS011;43656;57.746;11.780;2024-03-08T12:36:24;2.58;;;1.08;;
57826;SDS011;43656;57.746;11.780;2024-03-08T12:38:50;2.90;;;1.58;;
57826;SDS011;43656;57.746;11.780;2024-03-08T12:41:19;2.95;;;1.60;;
57826;SDS011;43656;57.746;11.780;2024-03-08T12:43:46;3.45;;;2.28;;
57826;SDS011;43656;57.746;11.780;2024-03-08T12:46:15;3.20;;;2.17;;
57826;SDS011;43656;57.746;11.780;2024-03-08T12:48:41;2.35;;;1.70;;
57826;SDS011;43656;57.746;11.780;2024-03-08T12:51:06;1.65;;;1.30;;
57826;SDS011;43656;57.746;11.780;2024-03-08T12:53:32;2.10;;;1.25;;
57826;SDS011;43656;57.746;11.780;2024-03-08T12:55:58;4.88;;;2.20;;
57826;SDS011;43656;57.746;11.780;2024-03-08T12:58:24;2.90;;;1.85;;
57826;SDS011;43656;57.746;11.780;2024-03-08T13:00:50;3.05;;;1.80;;
57826;SDS011;43656;57.746;11.780;2024-03-08T13:03:16;4.88;;;1.83;;
57826;SDS011;43656;57.746;11.780;2024-03-08T13:05:42;4.82;;;2.00;;
57826;SDS011;43656;57.746;11.780;2024-03-08T13:08:07;3.80;;;2.15;;
57826;SDS011;43656;57.746;11.780;2024-03-08T13:10:41;5.43;;;2.13;;
57826;SDS011;43656;57.746;11.780;2024-03-08T13:13:08;6.88;;;2.00;;
57826;SDS011;43656;57.746;11.780;2024-03-08T13:15:35;4.85;;;2.08;;
57826;SDS011;43656;57.746;11.780;2024-03-08T13:18:00;3.00;;;2.10;;
57826;SDS011;43656;57.746;11.780;2024-03-08T13:20:26;5.15;;;2.17;;
57826;SDS011;43656;57.746;11.780;2024-03-08T13:22:53;2.85;;;2.10;;
57826;SDS011;43656;57.746;11.780;2024-03-08T13:25:18;3.53;;;2.47;;
57826;SDS011;43656;57.746;11.780;2024-03-08T13:27:45;3.15;;;2.20;;
57826;SDS011;43656;57.746;11.780;2024-03-08T13:30:12;4.68;;;2.35;;
57826;SDS011;43656;57.746;11.780;2024-03-08T13:32:39;6.55;;;2.15;;
57826;SDS011;43656;57.746;11.780;2024-03-08T13:35:05;4.53;;;2.65;;
57826;SDS011;43656;57.746;11.780;2024-03-08T13:37:40;2.67;;;2.28;;
57826;SDS011;43656;57.746;11.780;2024-03-08T13:40:07;3.72;;;2.60;;
57826;SDS011;43656;57.746;11.780;2024-03-08T13:42:42;4.30;;;2.22;;
57826;SDS011;43656;57.746;11.780;2024-03-08T13:45:11;6.45;;;2.17;;
57826;SDS011;43656;57.746;11.780;2024-03-08T13:47:36;3.42;;;2.20;;
57826;SDS011;43656;57.746;11.780;2024-03-08T13:50:04;5.35;;;1.90;;
57826;SDS011;43656;57.746;11.780;2024-03-08T13:52:32;5.18;;;2.00;;
57826;SDS011;43656;57.746;11.780;2024-03-08T13:54:59;2.78;;;1.80;;
57826;SDS011;43656;57.746;11.780;2024-03-08T13:57:27;2.97;;;1.90;;
57826;SDS011;43656;57.746;11.780;2024-03-08T13:59:52;3.47;;;2.30;;
57826;SDS011;43656;57.746;11.780;2024-03-08T14:02:20;3.38;;;1.90;;
57826;SDS011;43656;57.746;11.780;2024-03-08T14:04:47;3.72;;;1.92;;
57826;SDS011;43656;57.746;11.780;2024-03-08T14:07:14;4.00;;;1.90;;
57826;SDS011;43656;57.746;11.780;2024-03-08T14:09:41;4.90;;;2.00;;
57826;SDS011;43656;57.746;11.780;2024-03-08T14:12:08;3.92;;;1.73;;
57826;SDS011;43656;57.746;11.780;2024-03-08T14:14:34;2.92;;;1.60;;
57826;SDS011;43656;57.746;11.780;2024-03-08T14:17:00;3.67;;;1.75;;
57826;SDS011;43656;57.746;11.780;2024-03-08T14:19:29;3.40;;;1.50;;
57826;SDS011;43656;57.746;11.780;2024-03-08T14:21:58;2.30;;;1.60;;
57826;SDS011;43656;57.746;11.780;2024-03-08T14:24:24;1.95;;;1.48;;
57826;SDS011;43656;57.746;11.780;2024-03-08T14:26:50;2.60;;;1.48;;
57826;SDS011;43656;57.746;11.780;2024-03-08T14:29:16;2.58;;;1.60;;
57826;SDS011;43656;57.746;11.780;2024-03-08T14:31:43;3.50;;;1.88;;
57826;SDS011;43656;57.746;11.780;2024-03-08T14:34:10;3.28;;;1.55;;